createdAt,value
2022-11-27T00:01:19.428Z,7.05
2022-11-27T00:03:46.843Z,5.57
2022-11-27T00:06:15.825Z,7.57
2022-11-27T00:08:43.913Z,7.05
2022-11-27T00:11:12.602Z,7.70
2022-11-27T00:13:39.919Z,6.47
2022-11-27T00:16:07.575Z,7.70
2022-11-27T00:18:34.809Z,6.53
2022-11-27T00:21:05.981Z,6.35
2022-11-27T00:23:33.846Z,7.93
2022-11-27T00:26:01.008Z,7.47
2022-11-27T00:28:29.439Z,6.72
2022-11-27T00:31:04.010Z,7.10
2022-11-27T00:33:31.299Z,6.80
2022-11-27T00:36:02.469Z,6.47
2022-11-27T00:38:30.491Z,6.78
2022-11-27T00:41:09.635Z,6.78
2022-11-27T00:43:44.150Z,6.45
2022-11-27T00:46:12.700Z,6.40
2022-11-27T00:48:40.045Z,6.10
2022-11-27T00:51:08.565Z,4.70
2022-11-27T00:53:36.098Z,5.47
2022-11-27T00:56:03.488Z,4.95
2022-11-27T00:58:30.958Z,4.72
2022-11-27T01:00:59.111Z,5.13
2022-11-27T01:03:26.347Z,5.15
2022-11-27T01:05:53.655Z,4.68
2022-11-27T01:08:21.079Z,4.75
2022-11-27T01:10:54.716Z,4.90
2022-11-27T01:13:29.775Z,4.50
2022-11-27T01:16:10.218Z,4.53
2022-11-27T01:18:38.241Z,4.35
2022-11-27T01:21:05.936Z,4.32
2022-11-27T01:23:33.171Z,5.10
2022-11-27T01:26:04.336Z,4.53
2022-11-27T01:28:31.887Z,3.92
2022-11-27T01:30:59.342Z,4.78
2022-11-27T01:33:26.490Z,4.05
2022-11-27T01:35:54.938Z,4.03
2022-11-27T01:38:22.258Z,4.55
2022-11-27T01:40:49.436Z,4.53
2022-11-27T01:43:16.687Z,4.10
2022-11-27T01:45:45.010Z,4.25
2022-11-27T01:48:14.153Z,4.10
2022-11-27T01:50:41.512Z,4.65
2022-11-27T01:53:16.164Z,4.13
2022-11-27T01:55:50.872Z,4.93
2022-11-27T01:58:20.624Z,4.65
2022-11-27T02:00:47.759Z,4.20
2022-11-27T02:03:16.203Z,4.75
2022-11-27T02:05:43.799Z,5.07
2022-11-27T02:08:13.431Z,4.72
2022-11-27T02:10:40.533Z,4.10
2022-11-27T02:13:14.321Z,4.80
2022-11-27T02:16:04.571Z,4.20
2022-11-27T02:18:38.170Z,4.38
2022-11-27T02:21:43.986Z,4.40
2022-11-27T02:24:25.014Z,4.47
2022-11-27T02:27:04.238Z,4.75
2022-11-27T02:29:34.875Z,4.53
2022-11-27T02:32:09.143Z,4.53
2022-11-27T02:34:55.252Z,4.15
2022-11-27T02:37:28.702Z,4.22
2022-11-27T02:40:07.487Z,4.32
2022-11-27T02:42:40.066Z,4.70
2022-11-27T02:45:10.413Z,4.68
2022-11-27T02:47:39.995Z,4.85
2022-11-27T02:50:10.070Z,4.60
2022-11-27T02:52:37.456Z,5.10
2022-11-27T02:55:06.781Z,4.75
2022-11-27T02:57:35.438Z,4.50
2022-11-27T03:00:02.681Z,4.43
2022-11-27T03:02:36.357Z,5.10
2022-11-27T03:05:05.339Z,4.78
2022-11-27T03:07:44.714Z,5.22
2022-11-27T03:10:20.369Z,4.88
2022-11-27T03:12:48.507Z,4.80
2022-11-27T03:15:16.222Z,4.85
2022-11-27T03:17:46.377Z,4.80
2022-11-27T03:20:17.008Z,4.80
2022-11-27T03:22:44.442Z,4.60
2022-11-27T03:25:11.756Z,4.72
2022-11-27T03:27:45.281Z,4.82
2022-11-27T03:30:12.973Z,5.10
2022-11-27T03:32:40.238Z,4.93
2022-11-27T03:35:09.839Z,4.38
2022-11-27T03:37:37.368Z,4.95
2022-11-27T03:40:05.222Z,4.90
2022-11-27T03:42:44.535Z,4.47
2022-11-27T03:45:29.099Z,4.95
2022-11-27T03:48:11.531Z,4.88
2022-11-27T03:50:41.462Z,5.00
2022-11-27T03:53:11.437Z,4.82
2022-11-27T03:55:38.604Z,4.68
2022-11-27T03:58:07.735Z,4.32
2022-11-27T04:00:40.943Z,5.10
2022-11-27T04:03:10.497Z,4.45
2022-11-27T04:05:37.868Z,5.10
2022-11-27T04:08:05.203Z,4.53
2022-11-27T04:10:32.346Z,5.25
2022-11-27T04:12:59.503Z,5.88
2022-11-27T04:15:26.666Z,4.82
2022-11-27T04:17:53.798Z,4.63
2022-11-27T04:20:20.945Z,4.53
2022-11-27T04:22:48.074Z,4.00
2022-11-27T04:25:15.242Z,4.43
2022-11-27T04:27:42.360Z,4.68
2022-11-27T04:30:09.802Z,4.78
2022-11-27T04:32:37.000Z,5.10
2022-11-27T04:35:04.843Z,4.10
2022-11-27T04:37:32.011Z,4.72
2022-11-27T04:39:59.158Z,4.70
2022-11-27T04:42:26.283Z,4.13
2022-11-27T04:44:53.402Z,4.70
2022-11-27T04:47:20.548Z,4.60
2022-11-27T04:49:47.651Z,5.28
2022-11-27T04:52:14.868Z,4.68
2022-11-27T04:54:42.142Z,4.53
2022-11-27T04:57:09.545Z,4.65
2022-11-27T04:59:37.985Z,4.30
2022-11-27T05:02:05.185Z,4.47
2022-11-27T05:04:32.409Z,4.50
2022-11-27T05:06:59.519Z,4.68
2022-11-27T05:09:26.748Z,4.60
2022-11-27T05:11:53.877Z,4.35
2022-11-27T05:14:22.775Z,4.15
2022-11-27T05:16:49.982Z,4.68
2022-11-27T05:19:17.730Z,4.47
2022-11-27T05:21:45.113Z,4.85
2022-11-27T05:24:12.804Z,4.40
2022-11-27T05:26:40.629Z,4.82
2022-11-27T05:29:08.574Z,4.30
2022-11-27T05:31:35.922Z,4.13
2022-11-27T05:34:03.607Z,4.63
2022-11-27T05:36:31.290Z,4.70
2022-11-27T05:38:58.748Z,4.63
2022-11-27T05:41:26.104Z,4.50
2022-11-27T05:43:53.312Z,4.45
2022-11-27T05:46:21.352Z,4.05
2022-11-27T05:48:48.915Z,4.53
2022-11-27T05:51:16.414Z,4.15
2022-11-27T05:53:43.583Z,4.30
2022-11-27T05:56:12.112Z,4.18
2022-11-27T05:58:40.076Z,4.53
2022-11-27T06:01:07.774Z,4.22
2022-11-27T06:03:35.021Z,4.22
2022-11-27T06:06:09.237Z,4.18
2022-11-27T06:08:39.698Z,4.25
2022-11-27T06:11:08.199Z,4.60
2022-11-27T06:13:35.351Z,4.10
2022-11-27T06:16:09.357Z,4.25
2022-11-27T06:18:36.522Z,4.85
2022-11-27T06:21:07.337Z,3.58
2022-11-27T06:23:34.688Z,4.15
2022-11-27T06:26:10.444Z,4.07
2022-11-27T06:28:37.719Z,4.28
2022-11-27T06:31:14.497Z,3.90
2022-11-27T06:33:44.534Z,4.57
2022-11-27T06:36:11.698Z,3.83
2022-11-27T06:38:39.387Z,3.85
2022-11-27T06:41:07.594Z,4.50
2022-11-27T06:43:34.975Z,4.97
2022-11-27T06:46:02.453Z,4.10
2022-11-27T06:48:30.318Z,3.85
2022-11-27T06:51:16.770Z,4.10
2022-11-27T06:53:44.029Z,3.90
2022-11-27T06:56:15.256Z,3.63
2022-11-27T06:58:42.673Z,4.30
2022-11-27T07:01:11.566Z,4.72
2022-11-27T07:03:39.021Z,5.60
2022-11-27T07:06:06.991Z,5.07
2022-11-27T07:08:34.495Z,5.88
2022-11-27T07:11:02.289Z,5.03
2022-11-27T07:13:30.189Z,5.70
2022-11-27T07:16:00.473Z,4.40
2022-11-27T07:18:27.661Z,5.15
2022-11-27T07:20:56.664Z,4.72
2022-11-27T07:23:24.076Z,5.03
2022-11-27T07:25:51.205Z,5.97
2022-11-27T07:28:19.261Z,5.20
2022-11-27T07:30:46.595Z,5.72
2022-11-27T07:33:13.722Z,5.70
2022-11-27T07:35:40.850Z,7.55
2022-11-27T07:38:08.035Z,6.53
2022-11-27T07:40:35.196Z,6.85
2022-11-27T07:43:02.410Z,6.18
2022-11-27T07:45:29.625Z,5.90
2022-11-27T07:47:56.841Z,5.95
2022-11-27T07:50:24.288Z,6.43
2022-11-27T07:52:51.423Z,6.38
2022-11-27T07:55:18.588Z,6.35
2022-11-27T07:57:45.717Z,5.60
2022-11-27T08:00:13.065Z,5.57
2022-11-27T08:02:40.197Z,6.00
2022-11-27T08:05:12.323Z,6.00
2022-11-27T08:07:40.857Z,6.18
2022-11-27T08:10:08.550Z,6.25
2022-11-27T08:12:35.710Z,6.38
2022-11-27T08:15:04.648Z,6.10
2022-11-27T08:17:31.969Z,5.93
2022-11-27T08:19:59.147Z,5.43
2022-11-27T08:22:26.294Z,5.63
2022-11-27T08:24:53.489Z,5.35
2022-11-27T08:27:20.906Z,5.88
2022-11-27T08:29:48.144Z,6.47
2022-11-27T08:32:15.290Z,5.78
2022-11-27T08:34:42.584Z,5.68
2022-11-27T08:37:09.938Z,5.10
2022-11-27T08:39:37.145Z,4.35
2022-11-27T08:42:04.333Z,4.70
2022-11-27T08:44:31.483Z,5.10
2022-11-27T08:46:58.605Z,4.55
2022-11-27T08:49:25.847Z,4.53
2022-11-27T08:51:53.006Z,5.03
2022-11-27T08:54:20.161Z,5.20
2022-11-27T08:56:47.312Z,4.38
2022-11-27T08:59:14.488Z,4.28
2022-11-27T09:01:41.634Z,4.50
2022-11-27T09:04:08.836Z,4.03
2022-11-27T09:06:36.287Z,4.63
2022-11-27T09:09:05.136Z,4.00
2022-11-27T09:11:33.496Z,3.95
2022-11-27T09:14:01.613Z,3.60
2022-11-27T09:16:30.169Z,3.35
2022-11-27T09:18:58.070Z,3.72
2022-11-27T09:21:30.270Z,3.42
2022-11-27T09:23:58.561Z,3.65
2022-11-27T09:26:25.921Z,3.63
2022-11-27T09:28:56.507Z,3.47
2022-11-27T09:31:24.079Z,3.80
2022-11-27T09:33:51.269Z,3.33
2022-11-27T09:36:20.266Z,3.38
2022-11-27T09:38:47.728Z,3.22
2022-11-27T09:41:14.836Z,3.60
2022-11-27T09:43:44.329Z,4.20
2022-11-27T09:46:17.494Z,4.10
2022-11-27T09:48:46.468Z,3.50
2022-11-27T09:51:34.050Z,3.72
2022-11-27T09:54:03.309Z,3.80
2022-11-27T09:56:30.751Z,4.32
2022-11-27T09:58:59.234Z,3.40
2022-11-27T10:01:40.540Z,3.78
2022-11-27T10:04:13.728Z,3.05
2022-11-27T10:06:53.117Z,3.40
2022-11-27T10:09:20.280Z,4.43
2022-11-27T10:11:47.403Z,3.38
2022-11-27T10:14:26.041Z,3.25
2022-11-27T10:17:00.089Z,3.28
2022-11-27T10:19:30.404Z,3.50
2022-11-27T10:22:04.256Z,3.22
2022-11-27T10:24:36.772Z,3.45
2022-11-27T10:27:09.696Z,3.33
2022-11-27T10:29:37.858Z,3.83
2022-11-27T10:32:32.877Z,3.20
2022-11-27T10:35:06.179Z,3.35
2022-11-27T10:37:33.287Z,3.33
2022-11-27T10:40:07.025Z,2.90
2022-11-27T10:42:37.128Z,3.75
2022-11-27T10:45:06.758Z,3.47
2022-11-27T10:47:34.219Z,3.20
2022-11-27T10:50:01.652Z,3.58
2022-11-27T10:52:28.972Z,3.30
2022-11-27T10:55:03.903Z,3.80
2022-11-27T11:00:10.677Z,3.80
2022-11-27T11:02:39.935Z,3.35
2022-11-27T11:05:35.045Z,3.10
2022-11-27T11:08:01.679Z,3.20
2022-11-27T11:10:39.208Z,3.10
2022-11-27T11:13:06.330Z,3.38
2022-11-27T11:15:33.910Z,3.53
2022-11-27T11:18:01.094Z,3.25
2022-11-27T11:20:28.279Z,3.58
2022-11-27T11:22:55.398Z,3.45
2022-11-27T11:25:22.946Z,3.10
2022-11-27T11:27:52.001Z,3.22
2022-11-27T11:30:23.142Z,3.60
2022-11-27T11:32:51.262Z,4.38
2022-11-27T11:35:24.601Z,4.25
2022-11-27T11:37:52.978Z,4.60
2022-11-27T11:40:24.840Z,4.28
2022-11-27T11:43:14.659Z,4.53
2022-11-27T11:45:46.886Z,4.18
2022-11-27T11:48:31.978Z,4.70
2022-11-27T11:51:05.075Z,4.82
2022-11-27T11:53:32.139Z,5.07
2022-11-27T11:56:18.255Z,4.60
2022-11-27T11:58:48.356Z,5.57
2022-11-27T12:01:27.252Z,5.75
2022-11-27T12:04:13.642Z,5.50
2022-11-27T12:06:59.716Z,4.97
2022-11-27T12:09:42.129Z,5.28
2022-11-27T12:12:18.351Z,5.30
2022-11-27T12:14:51.002Z,5.85
2022-11-27T12:17:25.937Z,4.80
2022-11-27T12:22:24.260Z,5.28
2022-11-27T12:25:06.506Z,5.00
2022-11-27T12:27:52.080Z,5.60
2022-11-27T12:30:21.291Z,5.70
2022-11-27T12:32:51.440Z,5.55
2022-11-27T12:35:37.060Z,5.70
2022-11-27T12:38:07.226Z,5.55
2022-11-27T12:40:39.219Z,5.78
2022-11-27T12:43:09.286Z,5.90
2022-11-27T12:45:45.002Z,5.68
2022-11-27T12:48:14.940Z,7.00
2022-11-27T12:50:48.261Z,6.13
2022-11-27T12:53:34.351Z,6.18
2022-11-27T12:56:04.514Z,6.93
2022-11-27T12:58:38.385Z,7.28
2022-11-27T13:01:11.646Z,6.70
2022-11-27T13:03:44.681Z,6.45
2022-11-27T13:06:17.015Z,6.18
2022-11-27T13:08:52.234Z,6.50
2022-11-27T13:11:20.973Z,6.53
2022-11-27T13:13:50.360Z,6.70
2022-11-27T13:16:24.080Z,6.97
2022-11-27T13:18:53.604Z,6.97
2022-11-27T13:21:26.220Z,7.20
2022-11-27T13:23:53.399Z,6.70
2022-11-27T13:26:26.560Z,6.60
2022-11-27T13:28:56.121Z,7.22
2022-11-27T13:31:25.489Z,7.20
2022-11-27T13:33:57.980Z,7.05
2022-11-27T13:36:26.647Z,7.05
2022-11-27T13:38:56.348Z,6.72
2022-11-27T13:41:32.204Z,6.90
2022-11-27T13:43:59.430Z,6.75
2022-11-27T13:46:28.721Z,6.82
2022-11-27T13:49:03.532Z,6.80
2022-11-27T13:51:32.334Z,6.60
2022-11-27T13:54:17.036Z,7.07
2022-11-27T13:56:44.449Z,6.85
2022-11-27T13:59:22.400Z,6.93
2022-11-27T14:02:08.651Z,6.93
2022-11-27T14:04:36.436Z,7.57
2022-11-27T14:07:03.671Z,7.50
2022-11-27T14:09:37.006Z,7.25
2022-11-27T14:12:14.020Z,7.32
2022-11-27T14:14:42.515Z,7.15
2022-11-27T14:17:25.400Z,7.82
2022-11-27T14:20:00.364Z,7.10
2022-11-27T14:24:55.925Z,6.90
2022-11-27T14:27:24.584Z,7.15
2022-11-27T14:29:52.198Z,7.13
2022-11-27T14:32:20.266Z,7.70
2022-11-27T14:34:50.824Z,7.00
2022-11-27T14:37:25.620Z,7.78
2022-11-27T14:39:53.085Z,7.75
2022-11-27T14:42:27.964Z,7.50
2022-11-27T14:45:02.660Z,8.18
2022-11-27T14:47:29.799Z,7.85
2022-11-27T14:49:57.135Z,9.00
2022-11-27T14:52:24.744Z,8.02
2022-11-27T14:54:52.479Z,8.20
2022-11-27T14:57:27.494Z,7.80
2022-11-27T15:00:05.035Z,7.85
2022-11-27T15:02:32.687Z,8.48
2022-11-27T15:05:04.654Z,7.43
2022-11-27T15:07:36.573Z,8.30
2022-11-27T15:10:08.711Z,9.18
2022-11-27T15:12:37.808Z,8.90
2022-11-27T15:15:04.899Z,9.05
2022-11-27T15:17:33.557Z,8.48
2022-11-27T15:20:01.551Z,8.35
2022-11-27T15:22:28.771Z,8.40
2022-11-27T15:25:03.831Z,8.55
2022-11-27T15:27:34.333Z,8.18
2022-11-27T15:30:03.320Z,8.73
2022-11-27T15:32:45.691Z,8.35
2022-11-27T15:35:14.173Z,9.63
2022-11-27T15:37:41.777Z,8.05
2022-11-27T15:40:29.316Z,7.30
2022-11-27T15:42:56.504Z,7.90
2022-11-27T15:45:23.868Z,7.32
2022-11-27T15:47:57.488Z,7.75
2022-11-27T15:50:24.643Z,7.35
2022-11-27T15:52:51.774Z,7.60
2022-11-27T15:55:18.970Z,7.93
2022-11-27T15:57:46.267Z,8.20
2022-11-27T16:00:13.642Z,8.38
2022-11-27T16:02:40.978Z,7.38
2022-11-27T16:05:08.780Z,8.82
2022-11-27T16:07:36.068Z,9.20
2022-11-27T16:10:03.495Z,8.90
2022-11-27T16:12:30.672Z,8.02
2022-11-27T16:14:57.833Z,8.68
2022-11-27T16:17:24.968Z,7.75
2022-11-27T16:19:52.347Z,8.90
2022-11-27T16:22:19.553Z,9.00
2022-11-27T16:24:46.674Z,9.27
2022-11-27T16:27:13.839Z,9.73
2022-11-27T16:29:41.082Z,9.93
2022-11-27T16:32:08.470Z,9.23
2022-11-27T16:34:35.734Z,9.93
2022-11-27T16:37:02.871Z,9.38
2022-11-27T16:39:29.957Z,9.40
2022-11-27T16:41:57.079Z,9.73
2022-11-27T16:44:24.252Z,9.00
2022-11-27T16:46:51.862Z,9.30
2022-11-27T16:49:19.030Z,10.60
2022-11-27T16:51:46.185Z,9.68
2022-11-27T16:54:13.754Z,9.75
2022-11-27T16:56:40.899Z,9.82
2022-11-27T16:59:12.030Z,9.60
2022-11-27T17:01:41.029Z,8.90
2022-11-27T17:04:11.348Z,9.80
2022-11-27T17:06:39.305Z,11.02
2022-11-27T17:09:10.735Z,9.63
2022-11-27T17:11:38.861Z,8.98
2022-11-27T17:14:07.511Z,9.32
2022-11-27T17:16:35.237Z,9.07
2022-11-27T17:19:12.557Z,9.10
2022-11-27T17:21:40.224Z,8.25
2022-11-27T17:24:14.545Z,8.90
2022-11-27T17:26:43.979Z,8.25
2022-11-27T17:29:11.788Z,8.98
2022-11-27T17:31:38.988Z,9.25
2022-11-27T17:34:07.050Z,7.95
2022-11-27T17:36:37.085Z,9.20
2022-11-27T17:39:05.532Z,8.55
2022-11-27T17:41:32.867Z,8.38
2022-11-27T17:44:00.378Z,8.82
2022-11-27T17:46:28.672Z,9.43
2022-11-27T17:48:59.098Z,7.97
2022-11-27T17:51:26.368Z,8.85
2022-11-27T17:53:53.518Z,9.48
2022-11-27T17:56:21.329Z,8.27
2022-11-27T17:58:48.912Z,8.65
2022-11-27T18:01:17.493Z,9.63
2022-11-27T18:03:46.144Z,8.52
2022-11-27T18:06:13.736Z,8.95
2022-11-27T18:08:41.083Z,9.30
2022-11-27T18:11:09.203Z,9.48
2022-11-27T18:13:36.596Z,9.50
2022-11-27T18:16:04.828Z,10.38
2022-11-27T18:18:32.048Z,10.15
2022-11-27T18:20:59.766Z,10.27
2022-11-27T18:23:26.907Z,10.10
2022-11-27T18:25:54.046Z,10.07
2022-11-27T18:28:21.182Z,10.32
2022-11-27T18:30:48.346Z,9.95
2022-11-27T18:33:15.715Z,9.73
2022-11-27T18:35:43.500Z,10.30
2022-11-27T18:38:10.773Z,9.70
2022-11-27T18:40:41.340Z,9.35
2022-11-27T18:43:08.623Z,8.98
2022-11-27T18:45:35.768Z,9.18
2022-11-27T18:48:03.279Z,10.50
2022-11-27T18:50:30.436Z,10.43
2022-11-27T18:52:57.800Z,10.02
2022-11-27T18:55:24.932Z,11.13
2022-11-27T18:57:52.068Z,10.85
2022-11-27T19:00:19.410Z,9.63
2022-11-27T19:02:46.692Z,10.32
2022-11-27T19:05:13.919Z,10.60
2022-11-27T19:07:41.128Z,10.35
2022-11-27T19:10:08.550Z,9.68
2022-11-27T19:12:35.674Z,11.40
2022-11-27T19:15:02.775Z,11.45
2022-11-27T19:17:32.411Z,11.40
2022-11-27T19:19:59.801Z,11.50
2022-11-27T19:22:26.952Z,11.45
2022-11-27T19:24:54.123Z,11.57
2022-11-27T19:27:21.235Z,11.32
2022-11-27T19:29:48.990Z,10.90
2022-11-27T19:32:16.238Z,11.23
2022-11-27T19:34:43.647Z,11.23
2022-11-27T19:37:10.899Z,11.30
2022-11-27T19:39:38.073Z,11.50
2022-11-27T19:42:05.288Z,10.77
2022-11-27T19:44:32.657Z,10.98
2022-11-27T19:47:00.443Z,10.77
2022-11-27T19:49:27.647Z,10.85
2022-11-27T19:51:54.835Z,11.20
2022-11-27T19:54:22.047Z,11.50
2022-11-27T19:56:49.424Z,10.93
2022-11-27T19:59:19.141Z,12.38
2022-11-27T20:01:48.662Z,12.40
2022-11-27T20:04:15.934Z,12.23
2022-11-27T20:06:43.103Z,11.85
2022-11-27T20:09:13.876Z,12.10
2022-11-27T20:11:41.061Z,11.85
2022-11-27T20:14:08.272Z,11.63
2022-11-27T20:16:36.434Z,11.30
2022-11-27T20:19:05.448Z,11.93
2022-11-27T20:21:32.799Z,11.88
2022-11-27T20:23:59.962Z,11.60
2022-11-27T20:26:29.071Z,11.75
2022-11-27T20:28:56.287Z,11.48
2022-11-27T20:31:28.176Z,11.10
2022-11-27T20:33:56.691Z,11.57
2022-11-27T20:36:24.351Z,11.93
2022-11-27T20:38:52.133Z,11.43
2022-11-27T20:41:20.523Z,10.40
2022-11-27T20:43:47.755Z,11.85
2022-11-27T20:46:16.029Z,10.75
2022-11-27T20:48:45.503Z,11.82
2022-11-27T20:51:13.797Z,10.73
2022-11-27T20:53:41.575Z,10.55
2022-11-27T20:56:09.318Z,10.88
2022-11-27T20:58:37.175Z,11.32
2022-11-27T21:01:13.776Z,11.18
2022-11-27T21:03:41.014Z,10.52
2022-11-27T21:06:09.462Z,10.63
2022-11-27T21:08:36.670Z,10.95
2022-11-27T21:11:14.011Z,9.57
2022-11-27T21:13:41.268Z,9.52
2022-11-27T21:16:10.411Z,9.63
2022-11-27T21:18:37.706Z,9.90
2022-11-27T21:21:08.316Z,9.95
2022-11-27T21:23:35.885Z,9.57
2022-11-27T21:26:03.122Z,9.98
2022-11-27T21:28:30.825Z,10.63
2022-11-27T21:31:08.829Z,9.23
2022-11-27T21:33:36.046Z,10.80
2022-11-27T21:36:03.574Z,9.68
2022-11-27T21:38:30.967Z,10.07
2022-11-27T21:40:58.094Z,10.52
2022-11-27T21:43:25.197Z,9.88
2022-11-27T21:45:52.414Z,10.00
2022-11-27T21:48:19.627Z,9.70
2022-11-27T21:50:47.288Z,9.55
2022-11-27T21:53:14.443Z,10.65
2022-11-27T21:55:42.438Z,9.52
2022-11-27T21:58:09.625Z,9.63
2022-11-27T22:00:37.307Z,9.73
2022-11-27T22:03:04.493Z,9.43
2022-11-27T22:05:31.662Z,9.68
2022-11-27T22:07:58.926Z,9.15
2022-11-27T22:10:26.173Z,10.52
2022-11-27T22:12:53.364Z,10.32
2022-11-27T22:15:20.579Z,9.95
2022-11-27T22:17:48.556Z,9.52
2022-11-27T22:20:16.390Z,10.02
2022-11-27T22:22:43.527Z,9.70
2022-11-27T22:25:10.848Z,9.25
2022-11-27T22:27:37.977Z,10.13
2022-11-27T22:30:05.491Z,9.00
2022-11-27T22:32:32.773Z,10.32
2022-11-27T22:34:59.923Z,9.00
2022-11-27T22:37:27.054Z,9.75
2022-11-27T22:39:54.182Z,8.70
2022-11-27T22:42:21.317Z,9.38
2022-11-27T22:44:48.558Z,9.77
2022-11-27T22:47:15.673Z,10.07
2022-11-27T22:49:42.834Z,9.27
2022-11-27T22:52:09.985Z,10.18
2022-11-27T22:54:37.135Z,10.20
2022-11-27T22:57:04.264Z,10.07
2022-11-27T22:59:33.203Z,10.40
2022-11-27T23:02:01.502Z,9.77
2022-11-27T23:04:28.888Z,10.18
2022-11-27T23:06:56.041Z,9.85
2022-11-27T23:09:23.510Z,10.15
2022-11-27T23:11:50.851Z,10.23
2022-11-27T23:14:18.001Z,9.95
2022-11-27T23:16:45.389Z,9.30
2022-11-27T23:19:12.607Z,9.57
2022-11-27T23:21:41.353Z,10.27
2022-11-27T23:24:10.429Z,9.85
2022-11-27T23:26:37.734Z,10.25
2022-11-27T23:29:05.107Z,8.95
2022-11-27T23:31:35.050Z,9.60
2022-11-27T23:34:03.618Z,10.02
2022-11-27T23:36:31.632Z,9.65
2022-11-27T23:39:02.817Z,9.55
2022-11-27T23:41:29.941Z,10.10
2022-11-27T23:43:57.236Z,9.57
2022-11-27T23:46:26.365Z,10.13
2022-11-27T23:48:57.045Z,10.80
2022-11-27T23:51:25.876Z,9.65
2022-11-27T23:53:53.403Z,9.93
2022-11-27T23:56:25.208Z,10.95
2022-11-27T23:58:52.368Z,9.93
